sensor_id;sensor_type;location;lat;lon;timestamp;pressure;altitude;pressure_sealevel;temperature
11849;BMP180;5983;49.966;8.052;2022-08-19T00:00:51;100197.00;;;21.50
11849;BMP180;5983;49.966;8.052;2022-08-19T00:03:18;100197.00;;;21.50
11849;BMP180;5983;49.966;8.052;2022-08-19T00:05:45;100202.00;;;21.50
11849;BMP180;5983;49.966;8.052;2022-08-19T00:08:12;100203.00;;;21.50
11849;BMP180;5983;49.966;8.052;2022-08-19T00:10:39;100211.00;;;21.50
11849;BMP180;5983;49.966;8.052;2022-08-19T00:13:07;100212.00;;;21.60
11849;BMP180;5983;49.966;8.052;2022-08-19T00:15:35;100201.00;;;21.60
11849;BMP180;5983;49.966;8.052;2022-08-19T00:18:02;100201.00;;;21.60
11849;BMP180;5983;49.966;8.052;2022-08-19T00:20:29;100202.00;;;21.60
11849;BMP180;5983;49.966;8.052;2022-08-19T00:22:56;100203.00;;;21.60
11849;BMP180;5983;49.966;8.052;2022-08-19T00:25:23;100203.00;;;21.60
11849;BMP180;5983;49.966;8.052;2022-08-19T00:27:50;100200.00;;;21.60
11849;BMP180;5983;49.966;8.052;2022-08-19T00:30:19;100196.00;;;21.60
11849;BMP180;5983;49.966;8.052;2022-08-19T00:32:46;100204.00;;;21.60
11849;BMP180;5983;49.966;8.052;2022-08-19T00:35:13;100207.00;;;21.60
11849;BMP180;5983;49.966;8.052;2022-08-19T00:37:40;100204.00;;;21.60
11849;BMP180;5983;49.966;8.052;2022-08-19T00:40:11;100203.00;;;21.70
11849;BMP180;5983;49.966;8.052;2022-08-19T00:42:38;100205.00;;;21.70
11849;BMP180;5983;49.966;8.052;2022-08-19T00:45:13;100199.00;;;21.70
11849;BMP180;5983;49.966;8.052;2022-08-19T00:47:44;100200.00;;;21.70
11849;BMP180;5983;49.966;8.052;2022-08-19T00:50:15;100198.00;;;21.70
11849;BMP180;5983;49.966;8.052;2022-08-19T00:52:46;100190.00;;;21.70
11849;BMP180;5983;49.966;8.052;2022-08-19T00:55:19;100190.00;;;21.70
11849;BMP180;5983;49.966;8.052;2022-08-19T00:57:52;100190.00;;;21.70
11849;BMP180;5983;49.966;8.052;2022-08-19T01:00:22;100184.00;;;21.70
11849;BMP180;5983;49.966;8.052;2022-08-19T01:02:52;100177.00;;;21.70
11849;BMP180;5983;49.966;8.052;2022-08-19T01:05:24;100168.00;;;21.70
11849;BMP180;5983;49.966;8.052;2022-08-19T01:07:54;100168.00;;;21.60
11849;BMP180;5983;49.966;8.052;2022-08-19T01:10:26;100158.00;;;21.60
11849;BMP180;5983;49.966;8.052;2022-08-19T01:12:55;100161.00;;;21.60
11849;BMP180;5983;49.966;8.052;2022-08-19T01:15:31;100159.00;;;21.50
11849;BMP180;5983;49.966;8.052;2022-08-19T01:18:06;100164.00;;;21.50
11849;BMP180;5983;49.966;8.052;2022-08-19T01:20:33;100165.00;;;21.50
11849;BMP180;5983;49.966;8.052;2022-08-19T01:23:03;100160.00;;;21.50
11849;BMP180;5983;49.966;8.052;2022-08-19T01:25:34;100147.00;;;21.40
11849;BMP180;5983;49.966;8.052;2022-08-19T01:28:03;100151.00;;;21.40
11849;BMP180;5983;49.966;8.052;2022-08-19T01:30:35;100153.00;;;21.30
11849;BMP180;5983;49.966;8.052;2022-08-19T01:33:02;100149.00;;;21.30
11849;BMP180;5983;49.966;8.052;2022-08-19T01:35:31;100143.00;;;21.30
11849;BMP180;5983;49.966;8.052;2022-08-19T01:38:06;100146.00;;;21.30
11849;BMP180;5983;49.966;8.052;2022-08-19T01:40:37;100144.00;;;21.30
11849;BMP180;5983;49.966;8.052;2022-08-19T01:43:06;100143.00;;;21.30
11849;BMP180;5983;49.966;8.052;2022-08-19T01:45:35;100159.00;;;21.30
11849;BMP180;5983;49.966;8.052;2022-08-19T01:48:06;100157.00;;;21.30
11849;BMP180;5983;49.966;8.052;2022-08-19T01:50:34;100165.00;;;21.40
11849;BMP180;5983;49.966;8.052;2022-08-19T01:53:09;100168.00;;;21.40
11849;BMP180;5983;49.966;8.052;2022-08-19T01:55:41;100168.00;;;21.40
11849;BMP180;5983;49.966;8.052;2022-08-19T01:58:13;100174.00;;;21.40
11849;BMP180;5983;49.966;8.052;2022-08-19T02:00:42;100183.00;;;21.40
11849;BMP180;5983;49.966;8.052;2022-08-19T02:03:11;100166.00;;;21.40
11849;BMP180;5983;49.966;8.052;2022-08-19T02:05:39;100161.00;;;21.40
11849;BMP180;5983;49.966;8.052;2022-08-19T02:08:08;100150.00;;;21.40
11849;BMP180;5983;49.966;8.052;2022-08-19T02:10:39;100149.00;;;21.40
11849;BMP180;5983;49.966;8.052;2022-08-19T02:13:07;100157.00;;;21.40
11849;BMP180;5983;49.966;8.052;2022-08-19T02:15:34;100168.00;;;21.40
11849;BMP180;5983;49.966;8.052;2022-08-19T02:18:02;100176.00;;;21.40
11849;BMP180;5983;49.966;8.052;2022-08-19T02:20:28;100169.00;;;21.40
11849;BMP180;5983;49.966;8.052;2022-08-19T02:22:56;100172.00;;;21.40
11849;BMP180;5983;49.966;8.052;2022-08-19T02:25:27;100172.00;;;21.40
11849;BMP180;5983;49.966;8.052;2022-08-19T02:27:54;100177.00;;;21.40
11849;BMP180;5983;49.966;8.052;2022-08-19T02:30:22;100168.00;;;21.40
11849;BMP180;5983;49.966;8.052;2022-08-19T02:32:50;100173.00;;;21.40
11849;BMP180;5983;49.966;8.052;2022-08-19T02:35:17;100170.00;;;21.40
11849;BMP180;5983;49.966;8.052;2022-08-19T02:37:45;100170.00;;;21.40
11849;BMP180;5983;49.966;8.052;2022-08-19T02:40:35;100171.00;;;21.30
11849;BMP180;5983;49.966;8.052;2022-08-19T02:43:05;100172.00;;;21.30
11849;BMP180;5983;49.966;8.052;2022-08-19T02:45:34;100175.00;;;21.30
11849;BMP180;5983;49.966;8.052;2022-08-19T02:48:01;100195.00;;;21.30
11849;BMP180;5983;49.966;8.052;2022-08-19T02:50:28;100191.00;;;21.30
11849;BMP180;5983;49.966;8.052;2022-08-19T02:52:55;100200.00;;;21.30
11849;BMP180;5983;49.966;8.052;2022-08-19T02:55:22;100195.00;;;21.30
11849;BMP180;5983;49.966;8.052;2022-08-19T02:57:50;100189.00;;;21.30
11849;BMP180;5983;49.966;8.052;2022-08-19T03:00:17;100194.00;;;21.30
11849;BMP180;5983;49.966;8.052;2022-08-19T03:02:44;100192.00;;;21.30
11849;BMP180;5983;49.966;8.052;2022-08-19T03:05:12;100196.00;;;21.30
11849;BMP180;5983;49.966;8.052;2022-08-19T03:07:39;100188.00;;;21.30
11849;BMP180;5983;49.966;8.052;2022-08-19T03:10:07;100191.00;;;21.30
11849;BMP180;5983;49.966;8.052;2022-08-19T03:12:36;100175.00;;;21.20
11849;BMP180;5983;49.966;8.052;2022-08-19T03:15:07;100182.00;;;21.20
11849;BMP180;5983;49.966;8.052;2022-08-19T03:17:34;100180.00;;;21.10
11849;BMP180;5983;49.966;8.052;2022-08-19T03:20:04;100190.00;;;21.10
11849;BMP180;5983;49.966;8.052;2022-08-19T03:22:31;100181.00;;;21.00
11849;BMP180;5983;49.966;8.052;2022-08-19T03:24:59;100172.00;;;21.00
11849;BMP180;5983;49.966;8.052;2022-08-19T03:27:26;100175.00;;;20.90
11849;BMP180;5983;49.966;8.052;2022-08-19T03:29:52;100183.00;;;20.90
11849;BMP180;5983;49.966;8.052;2022-08-19T03:32:21;100184.00;;;20.90
11849;BMP180;5983;49.966;8.052;2022-08-19T03:34:48;100189.00;;;20.90
11849;BMP180;5983;49.966;8.052;2022-08-19T03:37:16;100195.00;;;20.90
11849;BMP180;5983;49.966;8.052;2022-08-19T03:39:43;100197.00;;;20.90
11849;BMP180;5983;49.966;8.052;2022-08-19T03:42:11;100186.00;;;20.90
11849;BMP180;5983;49.966;8.052;2022-08-19T03:44:38;100195.00;;;20.90
11849;BMP180;5983;49.966;8.052;2022-08-19T03:47:06;100194.00;;;20.90
11849;BMP180;5983;49.966;8.052;2022-08-19T03:49:34;100192.00;;;20.90
11849;BMP180;5983;49.966;8.052;2022-08-19T03:52:03;100196.00;;;20.80
11849;BMP180;5983;49.966;8.052;2022-08-19T03:54:32;100192.00;;;20.80
11849;BMP180;5983;49.966;8.052;2022-08-19T03:56:59;100206.00;;;20.70
11849;BMP180;5983;49.966;8.052;2022-08-19T03:59:32;100214.00;;;20.70
11849;BMP180;5983;49.966;8.052;2022-08-19T04:02:05;100214.00;;;20.60
11849;BMP180;5983;49.966;8.052;2022-08-19T04:04:36;100206.00;;;20.60
11849;BMP180;5983;49.966;8.052;2022-08-19T04:07:04;100212.00;;;20.60
11849;BMP180;5983;49.966;8.052;2022-08-19T04:09:34;100212.00;;;20.50
11849;BMP180;5983;49.966;8.052;2022-08-19T04:12:03;100227.00;;;20.50
11849;BMP180;5983;49.966;8.052;2022-08-19T04:14:32;100220.00;;;20.40
11849;BMP180;5983;49.966;8.052;2022-08-19T04:17:01;100215.00;;;20.40
11849;BMP180;5983;49.966;8.052;2022-08-19T04:19:31;100212.00;;;20.30
11849;BMP180;5983;49.966;8.052;2022-08-19T04:21:59;100219.00;;;20.30
11849;BMP180;5983;49.966;8.052;2022-08-19T04:24:26;100217.00;;;20.20
11849;BMP180;5983;49.966;8.052;2022-08-19T04:26:53;100217.00;;;20.10
11849;BMP180;5983;49.966;8.052;2022-08-19T04:29:24;100220.00;;;20.10
11849;BMP180;5983;49.966;8.052;2022-08-19T04:31:54;100213.00;;;20.10
11849;BMP180;5983;49.966;8.052;2022-08-19T04:34:24;100208.00;;;20.10
11849;BMP180;5983;49.966;8.052;2022-08-19T04:36:53;100218.00;;;20.00
11849;BMP180;5983;49.966;8.052;2022-08-19T04:39:25;100219.00;;;20.00
11849;BMP180;5983;49.966;8.052;2022-08-19T04:42:13;100219.00;;;20.00
11849;BMP180;5983;49.966;8.052;2022-08-19T04:44:58;100216.00;;;20.00
11849;BMP180;5983;49.966;8.052;2022-08-19T04:47:25;100215.00;;;20.00
11849;BMP180;5983;49.966;8.052;2022-08-19T04:49:52;100219.00;;;20.00
11849;BMP180;5983;49.966;8.052;2022-08-19T04:52:19;100206.00;;;20.10
11849;BMP180;5983;49.966;8.052;2022-08-19T04:54:47;100208.00;;;20.10
11849;BMP180;5983;49.966;8.052;2022-08-19T04:57:14;100216.00;;;20.20
11849;BMP180;5983;49.966;8.052;2022-08-19T04:59:41;100221.00;;;20.20
11849;BMP180;5983;49.966;8.052;2022-08-19T05:02:09;100214.00;;;20.20
11849;BMP180;5983;49.966;8.052;2022-08-19T05:04:36;100221.00;;;20.30
11849;BMP180;5983;49.966;8.052;2022-08-19T05:07:05;100225.00;;;20.40
11849;BMP180;5983;49.966;8.052;2022-08-19T05:09:32;100224.00;;;20.40
11849;BMP180;5983;49.966;8.052;2022-08-19T05:12:01;100230.00;;;20.50
11849;BMP180;5983;49.966;8.052;2022-08-19T05:14:28;100223.00;;;20.50
11849;BMP180;5983;49.966;8.052;2022-08-19T05:16:55;100226.00;;;20.60
11849;BMP180;5983;49.966;8.052;2022-08-19T05:19:22;100229.00;;;20.60
11849;BMP180;5983;49.966;8.052;2022-08-19T05:22:06;100248.00;;;20.70
11849;BMP180;5983;49.966;8.052;2022-08-19T05:24:51;100242.00;;;20.80
11849;BMP180;5983;49.966;8.052;2022-08-19T05:27:19;100246.00;;;20.80
11849;BMP180;5983;49.966;8.052;2022-08-19T05:29:46;100241.00;;;20.90
11849;BMP180;5983;49.966;8.052;2022-08-19T05:32:13;100236.00;;;20.90
11849;BMP180;5983;49.966;8.052;2022-08-19T05:34:40;100238.00;;;21.00
11849;BMP180;5983;49.966;8.052;2022-08-19T05:37:07;100232.00;;;21.10
11849;BMP180;5983;49.966;8.052;2022-08-19T05:39:36;100225.00;;;21.10
11849;BMP180;5983;49.966;8.052;2022-08-19T05:42:07;100224.00;;;21.20
11849;BMP180;5983;49.966;8.052;2022-08-19T05:44:39;100230.00;;;21.30
11849;BMP180;5983;49.966;8.052;2022-08-19T05:47:11;100243.00;;;21.40
11849;BMP180;5983;49.966;8.052;2022-08-19T05:49:38;100240.00;;;21.50
11849;BMP180;5983;49.966;8.052;2022-08-19T05:52:09;100246.00;;;21.60
11849;BMP180;5983;49.966;8.052;2022-08-19T05:54:37;100236.00;;;21.60
11849;BMP180;5983;49.966;8.052;2022-08-19T05:57:07;100234.00;;;21.70
11849;BMP180;5983;49.966;8.052;2022-08-19T05:59:33;100232.00;;;21.80
11849;BMP180;5983;49.966;8.052;2022-08-19T06:02:05;100241.00;;;21.90
11849;BMP180;5983;49.966;8.052;2022-08-19T06:04:33;100256.00;;;22.00
11849;BMP180;5983;49.966;8.052;2022-08-19T06:07:00;100260.00;;;22.20
11849;BMP180;5983;49.966;8.052;2022-08-19T06:09:28;100270.00;;;22.30
11849;BMP180;5983;49.966;8.052;2022-08-19T06:11:58;100269.00;;;22.40
11849;BMP180;5983;49.966;8.052;2022-08-19T06:14:28;100278.00;;;22.50
11849;BMP180;5983;49.966;8.052;2022-08-19T06:16:56;100272.00;;;22.60
11849;BMP180;5983;49.966;8.052;2022-08-19T06:19:28;100285.00;;;22.70
11849;BMP180;5983;49.966;8.052;2022-08-19T06:21:57;100287.00;;;22.90
11849;BMP180;5983;49.966;8.052;2022-08-19T06:24:28;100298.00;;;23.00
11849;BMP180;5983;49.966;8.052;2022-08-19T06:26:57;100294.00;;;23.10
11849;BMP180;5983;49.966;8.052;2022-08-19T06:29:28;100306.00;;;23.20
11849;BMP180;5983;49.966;8.052;2022-08-19T06:31:59;100299.00;;;23.40
11849;BMP180;5983;49.966;8.052;2022-08-19T06:34:30;100306.00;;;23.50
11849;BMP180;5983;49.966;8.052;2022-08-19T06:37:00;100309.00;;;23.70
11849;BMP180;5983;49.966;8.052;2022-08-19T06:39:31;100310.00;;;23.80
11849;BMP180;5983;49.966;8.052;2022-08-19T06:42:01;100314.00;;;23.90
11849;BMP180;5983;49.966;8.052;2022-08-19T06:44:32;100314.00;;;24.10
11849;BMP180;5983;49.966;8.052;2022-08-19T06:47:02;100317.00;;;24.20
11849;BMP180;5983;49.966;8.052;2022-08-19T06:49:31;100307.00;;;24.40
11849;BMP180;5983;49.966;8.052;2022-08-19T06:52:00;100304.00;;;24.50
11849;BMP180;5983;49.966;8.052;2022-08-19T06:54:27;100310.00;;;24.60
11849;BMP180;5983;49.966;8.052;2022-08-19T06:56:55;100305.00;;;24.70
11849;BMP180;5983;49.966;8.052;2022-08-19T06:59:24;100316.00;;;24.80
11849;BMP180;5983;49.966;8.052;2022-08-19T07:01:56;100323.00;;;25.00
11849;BMP180;5983;49.966;8.052;2022-08-19T07:04:28;100311.00;;;25.20
11849;BMP180;5983;49.966;8.052;2022-08-19T07:07:01;100322.00;;;25.20
11849;BMP180;5983;49.966;8.052;2022-08-19T07:09:29;100331.00;;;25.10
11849;BMP180;5983;49.966;8.052;2022-08-19T07:11:56;100321.00;;;25.00
11849;BMP180;5983;49.966;8.052;2022-08-19T07:14:26;100314.00;;;25.00
11849;BMP180;5983;49.966;8.052;2022-08-19T07:16:56;100307.00;;;24.90
11849;BMP180;5983;49.966;8.052;2022-08-19T07:19:26;100314.00;;;24.80
11849;BMP180;5983;49.966;8.052;2022-08-19T07:21:54;100315.00;;;24.80
11849;BMP180;5983;49.966;8.052;2022-08-19T07:24:25;100314.00;;;24.80
11849;BMP180;5983;49.966;8.052;2022-08-19T07:26:56;100320.00;;;24.80
11849;BMP180;5983;49.966;8.052;2022-08-19T07:29:31;100315.00;;;24.90
11849;BMP180;5983;49.966;8.052;2022-08-19T07:32:00;100318.00;;;25.00
11849;BMP180;5983;49.966;8.052;2022-08-19T07:34:29;100304.00;;;25.20
11849;BMP180;5983;49.966;8.052;2022-08-19T07:37:03;100303.00;;;25.50
11849;BMP180;5983;49.966;8.052;2022-08-19T07:39:35;100309.00;;;25.90
11849;BMP180;5983;49.966;8.052;2022-08-19T07:42:07;100311.00;;;26.20
11849;BMP180;5983;49.966;8.052;2022-08-19T07:44:36;100316.00;;;26.50
11849;BMP180;5983;49.966;8.052;2022-08-19T07:47:04;100332.00;;;26.70
11849;BMP180;5983;49.966;8.052;2022-08-19T07:49:33;100322.00;;;26.90
11849;BMP180;5983;49.966;8.052;2022-08-19T07:52:04;100323.00;;;27.00
11849;BMP180;5983;49.966;8.052;2022-08-19T07:54:36;100330.00;;;26.90
11849;BMP180;5983;49.966;8.052;2022-08-19T07:57:04;100316.00;;;27.00
11849;BMP180;5983;49.966;8.052;2022-08-19T07:59:32;100317.00;;;27.20
11849;BMP180;5983;49.966;8.052;2022-08-19T08:02:00;100317.00;;;27.40
11849;BMP180;5983;49.966;8.052;2022-08-19T08:04:30;100322.00;;;27.50
11849;BMP180;5983;49.966;8.052;2022-08-19T08:07:15;100322.00;;;27.60
11849;BMP180;5983;49.966;8.052;2022-08-19T08:10:03;100330.00;;;27.70
11849;BMP180;5983;49.966;8.052;2022-08-19T08:12:35;100332.00;;;27.80
11849;BMP180;5983;49.966;8.052;2022-08-19T08:15:11;100336.00;;;27.80
11849;BMP180;5983;49.966;8.052;2022-08-19T08:17:43;100341.00;;;27.80
11849;BMP180;5983;49.966;8.052;2022-08-19T08:20:11;100336.00;;;27.60
11849;BMP180;5983;49.966;8.052;2022-08-19T08:22:43;100348.00;;;27.40
11849;BMP180;5983;49.966;8.052;2022-08-19T08:25:30;100343.00;;;27.40
11849;BMP180;5983;49.966;8.052;2022-08-19T08:27:58;100349.00;;;27.40
11849;BMP180;5983;49.966;8.052;2022-08-19T08:30:26;100351.00;;;27.40
11849;BMP180;5983;49.966;8.052;2022-08-19T08:32:54;100352.00;;;27.70
11849;BMP180;5983;49.966;8.052;2022-08-19T08:35:23;100345.00;;;27.90
11849;BMP180;5983;49.966;8.052;2022-08-19T08:37:53;100354.00;;;28.10
11849;BMP180;5983;49.966;8.052;2022-08-19T08:40:27;100354.00;;;28.00
11849;BMP180;5983;49.966;8.052;2022-08-19T08:43:02;100355.00;;;28.00
11849;BMP180;5983;49.966;8.052;2022-08-19T08:45:32;100345.00;;;27.90
11849;BMP180;5983;49.966;8.052;2022-08-19T08:48:09;100344.00;;;27.90
11849;BMP180;5983;49.966;8.052;2022-08-19T08:50:43;100339.00;;;27.80
11849;BMP180;5983;49.966;8.052;2022-08-19T08:53:16;100347.00;;;27.60
11849;BMP180;5983;49.966;8.052;2022-08-19T08:55:46;100343.00;;;27.70
11849;BMP180;5983;49.966;8.052;2022-08-19T08:58:24;100356.00;;;27.80
11849;BMP180;5983;49.966;8.052;2022-08-19T09:00:52;100357.00;;;28.10
11849;BMP180;5983;49.966;8.052;2022-08-19T09:03:23;100357.00;;;28.20
11849;BMP180;5983;49.966;8.052;2022-08-19T09:05:59;100361.00;;;28.10
11849;BMP180;5983;49.966;8.052;2022-08-19T09:08:47;100357.00;;;28.20
11849;BMP180;5983;49.966;8.052;2022-08-19T09:11:39;100359.00;;;28.30
11849;BMP180;5983;49.966;8.052;2022-08-19T09:14:30;100367.00;;;28.30
11849;BMP180;5983;49.966;8.052;2022-08-19T09:16:59;100370.00;;;28.30
11849;BMP180;5983;49.966;8.052;2022-08-19T09:19:26;100382.00;;;28.30
11849;BMP180;5983;49.966;8.052;2022-08-19T09:21:53;100362.00;;;28.20
11849;BMP180;5983;49.966;8.052;2022-08-19T09:24:19;100357.00;;;28.40
11849;BMP180;5983;49.966;8.052;2022-08-19T09:26:47;100369.00;;;28.60
11849;BMP180;5983;49.966;8.052;2022-08-19T09:29:15;100364.00;;;29.10
11849;BMP180;5983;49.966;8.052;2022-08-19T09:31:42;100355.00;;;29.60
11849;BMP180;5983;49.966;8.052;2022-08-19T09:34:09;100354.00;;;29.90
11849;BMP180;5983;49.966;8.052;2022-08-19T09:36:36;100346.00;;;30.30
11849;BMP180;5983;49.966;8.052;2022-08-19T09:39:06;100350.00;;;30.50
11849;BMP180;5983;49.966;8.052;2022-08-19T09:41:32;100347.00;;;30.60
11849;BMP180;5983;49.966;8.052;2022-08-19T09:43:59;100336.00;;;30.80
11849;BMP180;5983;49.966;8.052;2022-08-19T09:46:29;100337.00;;;31.10
11849;BMP180;5983;49.966;8.052;2022-08-19T09:48:59;100338.00;;;31.20
11849;BMP180;5983;49.966;8.052;2022-08-19T09:51:27;100339.00;;;31.30
11849;BMP180;5983;49.966;8.052;2022-08-19T09:53:59;100333.00;;;31.40
11849;BMP180;5983;49.966;8.052;2022-08-19T09:56:28;100339.00;;;31.60
11849;BMP180;5983;49.966;8.052;2022-08-19T09:58:58;100338.00;;;31.60
11849;BMP180;5983;49.966;8.052;2022-08-19T10:01:29;100319.00;;;31.70
11849;BMP180;5983;49.966;8.052;2022-08-19T10:03:59;100336.00;;;31.80
11849;BMP180;5983;49.966;8.052;2022-08-19T10:06:29;100340.00;;;31.80
11849;BMP180;5983;49.966;8.052;2022-08-19T10:08:58;100335.00;;;32.00
11849;BMP180;5983;49.966;8.052;2022-08-19T10:11:25;100334.00;;;32.10
11849;BMP180;5983;49.966;8.052;2022-08-19T10:13:53;100338.00;;;32.10
11849;BMP180;5983;49.966;8.052;2022-08-19T10:16:22;100332.00;;;32.10
11849;BMP180;5983;49.966;8.052;2022-08-19T10:18:52;100331.00;;;32.20
11849;BMP180;5983;49.966;8.052;2022-08-19T10:21:23;100332.00;;;32.40
11849;BMP180;5983;49.966;8.052;2022-08-19T10:23:53;100335.00;;;32.60
11849;BMP180;5983;49.966;8.052;2022-08-19T10:26:24;100333.00;;;32.70
11849;BMP180;5983;49.966;8.052;2022-08-19T10:28:52;100330.00;;;32.90
11849;BMP180;5983;49.966;8.052;2022-08-19T10:31:29;100320.00;;;32.80
11849;BMP180;5983;49.966;8.052;2022-08-19T10:34:01;100319.00;;;32.80
11849;BMP180;5983;49.966;8.052;2022-08-19T10:36:32;100309.00;;;32.90
11849;BMP180;5983;49.966;8.052;2022-08-19T10:39:06;100321.00;;;33.00
11849;BMP180;5983;49.966;8.052;2022-08-19T10:41:37;100330.00;;;33.10
11849;BMP180;5983;49.966;8.052;2022-08-19T10:44:09;100324.00;;;33.20
11849;BMP180;5983;49.966;8.052;2022-08-19T10:46:38;100313.00;;;33.30
11849;BMP180;5983;49.966;8.052;2022-08-19T10:49:10;100317.00;;;33.40
11849;BMP180;5983;49.966;8.052;2022-08-19T10:51:39;100316.00;;;33.40
11849;BMP180;5983;49.966;8.052;2022-08-19T10:54:24;100306.00;;;33.40
11849;BMP180;5983;49.966;8.052;2022-08-19T10:57:11;100307.00;;;33.60
11849;BMP180;5983;49.966;8.052;2022-08-19T10:59:38;100305.00;;;33.70
11849;BMP180;5983;49.966;8.052;2022-08-19T11:02:08;100310.00;;;33.90
11849;BMP180;5983;49.966;8.052;2022-08-19T11:04:37;100304.00;;;34.00
11849;BMP180;5983;49.966;8.052;2022-08-19T11:07:05;100291.00;;;34.20
11849;BMP180;5983;49.966;8.052;2022-08-19T11:09:40;100293.00;;;34.30
11849;BMP180;5983;49.966;8.052;2022-08-19T11:12:09;100293.00;;;34.30
11849;BMP180;5983;49.966;8.052;2022-08-19T11:14:38;100293.00;;;34.30
11849;BMP180;5983;49.966;8.052;2022-08-19T11:17:06;100294.00;;;34.30
11849;BMP180;5983;49.966;8.052;2022-08-19T11:19:35;100291.00;;;34.30
11849;BMP180;5983;49.966;8.052;2022-08-19T11:22:03;100288.00;;;34.40
11849;BMP180;5983;49.966;8.052;2022-08-19T11:24:31;100294.00;;;34.40
11849;BMP180;5983;49.966;8.052;2022-08-19T11:27:03;100294.00;;;34.50
11849;BMP180;5983;49.966;8.052;2022-08-19T11:29:32;100285.00;;;34.50
11849;BMP180;5983;49.966;8.052;2022-08-19T11:32:03;100296.00;;;34.60
11849;BMP180;5983;49.966;8.052;2022-08-19T11:34:30;100286.00;;;34.70
11849;BMP180;5983;49.966;8.052;2022-08-19T11:36:58;100280.00;;;34.70
11849;BMP180;5983;49.966;8.052;2022-08-19T11:39:29;100283.00;;;34.80
11849;BMP180;5983;49.966;8.052;2022-08-19T11:41:59;100276.00;;;34.80
11849;BMP180;5983;49.966;8.052;2022-08-19T11:44:27;100282.00;;;34.90
11849;BMP180;5983;49.966;8.052;2022-08-19T11:46:56;100277.00;;;34.80
11849;BMP180;5983;49.966;8.052;2022-08-19T11:49:23;100277.00;;;34.90
11849;BMP180;5983;49.966;8.052;2022-08-19T11:51:50;100273.00;;;35.00
11849;BMP180;5983;49.966;8.052;2022-08-19T11:54:18;100264.00;;;35.10
11849;BMP180;5983;49.966;8.052;2022-08-19T11:56:45;100264.00;;;35.10
11849;BMP180;5983;49.966;8.052;2022-08-19T11:59:14;100260.00;;;35.00
11849;BMP180;5983;49.966;8.052;2022-08-19T12:01:41;100259.00;;;35.00
11849;BMP180;5983;49.966;8.052;2022-08-19T12:04:10;100255.00;;;34.80
11849;BMP180;5983;49.966;8.052;2022-08-19T12:06:40;100248.00;;;34.70
11849;BMP180;5983;49.966;8.052;2022-08-19T12:09:09;100252.00;;;34.70
11849;BMP180;5983;49.966;8.052;2022-08-19T12:11:39;100238.00;;;34.80
11849;BMP180;5983;49.966;8.052;2022-08-19T12:14:10;100235.00;;;34.70
11849;BMP180;5983;49.966;8.052;2022-08-19T12:16:40;100241.00;;;34.60
11849;BMP180;5983;49.966;8.052;2022-08-19T12:19:14;100232.00;;;34.40
11849;BMP180;5983;49.966;8.052;2022-08-19T12:21:44;100239.00;;;34.40
11849;BMP180;5983;49.966;8.052;2022-08-19T12:24:15;100235.00;;;34.40
11849;BMP180;5983;49.966;8.052;2022-08-19T12:26:51;100226.00;;;34.50
11849;BMP180;5983;49.966;8.052;2022-08-19T12:29:23;100226.00;;;34.50
11849;BMP180;5983;49.966;8.052;2022-08-19T12:31:55;100222.00;;;34.50
11849;BMP180;5983;49.966;8.052;2022-08-19T12:34:29;100228.00;;;34.40
11849;BMP180;5983;49.966;8.052;2022-08-19T12:36:58;100229.00;;;34.30
11849;BMP180;5983;49.966;8.052;2022-08-19T12:39:25;100234.00;;;34.30
11849;BMP180;5983;49.966;8.052;2022-08-19T12:41:54;100243.00;;;34.30
11849;BMP180;5983;49.966;8.052;2022-08-19T12:44:21;100244.00;;;34.40
11849;BMP180;5983;49.966;8.052;2022-08-19T12:46:48;100240.00;;;34.40
11849;BMP180;5983;49.966;8.052;2022-08-19T12:49:16;100240.00;;;34.30
11849;BMP180;5983;49.966;8.052;2022-08-19T12:51:45;100239.00;;;34.20
11849;BMP180;5983;49.966;8.052;2022-08-19T12:54:13;100240.00;;;34.20
11849;BMP180;5983;49.966;8.052;2022-08-19T12:56:40;100233.00;;;34.20
11849;BMP180;5983;49.966;8.052;2022-08-19T12:59:10;100232.00;;;34.20
11849;BMP180;5983;49.966;8.052;2022-08-19T13:01:37;100230.00;;;34.20
11849;BMP180;5983;49.966;8.052;2022-08-19T13:04:04;100233.00;;;34.20
11849;BMP180;5983;49.966;8.052;2022-08-19T13:06:31;100237.00;;;34.20
11849;BMP180;5983;49.966;8.052;2022-08-19T13:08:58;100223.00;;;34.20
11849;BMP180;5983;49.966;8.052;2022-08-19T13:11:25;100222.00;;;34.20
11849;BMP180;5983;49.966;8.052;2022-08-19T13:13:52;100220.00;;;34.20
11849;BMP180;5983;49.966;8.052;2022-08-19T13:16:22;100229.00;;;34.30
11849;BMP180;5983;49.966;8.052;2022-08-19T13:18:49;100229.00;;;34.20
11849;BMP180;5983;49.966;8.052;2022-08-19T13:21:19;100226.00;;;34.20
11849;BMP180;5983;49.966;8.052;2022-08-19T13:23:47;100235.00;;;34.10
11849;BMP180;5983;49.966;8.052;2022-08-19T13:26:14;100227.00;;;34.00
11849;BMP180;5983;49.966;8.052;2022-08-19T13:28:43;100236.00;;;33.90
11849;BMP180;5983;49.966;8.052;2022-08-19T13:31:32;100234.00;;;33.90
11849;BMP180;5983;49.966;8.052;2022-08-19T13:34:19;100237.00;;;33.80
11849;BMP180;5983;49.966;8.052;2022-08-19T13:36:46;100251.00;;;33.90
11849;BMP180;5983;49.966;8.052;2022-08-19T13:39:13;100246.00;;;33.90
11849;BMP180;5983;49.966;8.052;2022-08-19T13:41:44;100251.00;;;33.90
11849;BMP180;5983;49.966;8.052;2022-08-19T13:44:13;100241.00;;;33.90
11849;BMP180;5983;49.966;8.052;2022-08-19T13:46:42;100238.00;;;33.80
11849;BMP180;5983;49.966;8.052;2022-08-19T13:49:11;100236.00;;;33.80
11849;BMP180;5983;49.966;8.052;2022-08-19T13:51:39;100234.00;;;33.70
11849;BMP180;5983;49.966;8.052;2022-08-19T13:54:06;100232.00;;;33.60
11849;BMP180;5983;49.966;8.052;2022-08-19T13:56:34;100242.00;;;33.40
11849;BMP180;5983;49.966;8.052;2022-08-19T13:59:02;100241.00;;;33.20
11849;BMP180;5983;49.966;8.052;2022-08-19T14:01:29;100242.00;;;33.20
11849;BMP180;5983;49.966;8.052;2022-08-19T14:03:57;100235.00;;;33.20
11849;BMP180;5983;49.966;8.052;2022-08-19T14:06:24;100241.00;;;33.30
11849;BMP180;5983;49.966;8.052;2022-08-19T14:08:51;100242.00;;;33.30
11849;BMP180;5983;49.966;8.052;2022-08-19T14:11:19;100242.00;;;33.40
11849;BMP180;5983;49.966;8.052;2022-08-19T14:13:45;100242.00;;;33.30
11849;BMP180;5983;49.966;8.052;2022-08-19T14:16:14;100247.00;;;33.30
11849;BMP180;5983;49.966;8.052;2022-08-19T14:18:42;100257.00;;;33.30
11849;BMP180;5983;49.966;8.052;2022-08-19T14:21:17;100245.00;;;33.10
11849;BMP180;5983;49.966;8.052;2022-08-19T14:23:46;100243.00;;;33.10